createdAt,value
2018-07-04T05:01:20.127Z,24.87
2018-07-04T05:04:00.942Z,25.37
2018-07-04T05:06:40.634Z,31.63
2018-07-04T05:09:20.359Z,33.60
2018-07-04T05:12:00.267Z,29.60
2018-07-04T05:14:40.117Z,18.97
2018-07-04T05:17:19.909Z,16.17
2018-07-04T05:19:59.555Z,14.23
2018-07-04T05:22:39.348Z,13.97
2018-07-04T05:25:19.510Z,14.03
2018-07-04T05:28:00.213Z,14.57
2018-07-04T05:30:39.843Z,14.50
2018-07-04T05:33:19.593Z,14.80
2018-07-04T05:35:59.478Z,13.50
2018-07-04T05:38:41.244Z,13.57
2018-07-04T05:41:21.036Z,15.33
2018-07-04T05:44:01.054Z,16.60
2018-07-04T05:46:40.895Z,19.53
2018-07-04T05:49:20.719Z,21.50
2018-07-04T05:52:00.775Z,21.83
2018-07-04T05:54:40.467Z,20.90
2018-07-04T05:57:20.169Z,21.13
2018-07-04T06:00:00.604Z,18.80
2018-07-04T06:02:40.349Z,16.70
2018-07-04T06:05:21.170Z,14.43
2018-07-04T06:08:01.005Z,14.70
2018-07-04T06:10:40.635Z,13.67
2018-07-04T06:13:20.870Z,13.27
2018-07-04T06:16:00.726Z,12.13
2018-07-04T06:18:41.469Z,10.27
2018-07-04T06:21:21.314Z,7.97
2018-07-04T06:24:01.039Z,8.13
2018-07-04T06:26:40.829Z,7.47
2018-07-04T06:29:20.506Z,8.10
2018-07-04T06:32:00.220Z,7.47
2018-07-04T06:34:40.136Z,7.47
2018-07-04T06:37:19.871Z,7.03
2018-07-04T06:39:47.298Z,5.50
2018-07-04T06:42:14.687Z,5.20
2018-07-04T06:44:42.128Z,4.80
2018-07-04T06:47:09.486Z,4.20
2018-07-04T06:49:37.641Z,3.77
2018-07-04T06:52:05.039Z,3.83
2018-07-04T06:54:32.668Z,3.33
2018-07-04T06:57:00.030Z,3.40
2018-07-04T06:59:27.442Z,3.13
2018-07-04T07:02:09.160Z,3.40
2018-07-04T07:04:49.948Z,3.30
2018-07-04T07:07:29.834Z,2.73
2018-07-04T07:10:09.674Z,2.87
2018-07-04T07:12:49.785Z,2.70
2018-07-04T07:15:30.475Z,2.27
2018-07-04T07:18:12.348Z,1.80
2018-07-04T07:20:52.130Z,1.80
2018-07-04T07:23:32.232Z,1.90
2018-07-04T07:26:12.419Z,1.77
2018-07-04T07:28:52.538Z,1.97
2018-07-04T07:31:32.203Z,1.70
2018-07-04T07:34:06.795Z,1.90
2018-07-04T07:36:48.064Z,1.70
2018-07-04T07:39:27.814Z,1.67
2018-07-04T07:42:07.529Z,1.60
2018-07-04T07:44:47.354Z,1.67
2018-07-04T07:47:27.135Z,1.70
2018-07-04T07:50:07.384Z,2.00
2018-07-04T07:52:47.164Z,1.77
2018-07-04T07:55:26.940Z,1.80
2018-07-04T07:58:06.792Z,1.60
2018-07-04T08:00:46.643Z,1.37
2018-07-04T08:03:26.344Z,2.10
2018-07-04T08:06:06.038Z,1.60
2018-07-04T08:08:45.717Z,1.77
2018-07-04T08:11:25.442Z,1.90
2018-07-04T08:14:05.106Z,1.60
2018-07-04T08:16:44.974Z,1.80
2018-07-04T08:19:24.798Z,1.60
2018-07-04T08:22:04.372Z,2.03
2018-07-04T08:24:44.131Z,1.90
2018-07-04T08:27:24.086Z,1.20
2018-07-04T08:30:03.922Z,1.60
2018-07-04T08:32:44.194Z,1.53
2018-07-04T08:35:24.430Z,1.67
2018-07-04T08:38:04.273Z,1.80
2018-07-04T08:40:44.549Z,1.77
2018-07-04T08:43:24.491Z,1.87
2018-07-04T08:46:04.879Z,1.50
2018-07-04T08:48:45.485Z,1.50
2018-07-04T08:51:25.350Z,1.80
2018-07-04T08:54:04.972Z,1.50
2018-07-04T08:56:44.610Z,1.73
2018-07-04T08:59:24.289Z,1.60
2018-07-04T09:02:04.166Z,1.70
2018-07-04T09:04:44.195Z,1.30
2018-07-04T09:07:24.046Z,1.80
2018-07-04T09:10:03.735Z,1.87
2018-07-04T09:12:43.584Z,1.97
2018-07-04T09:15:23.289Z,1.53
2018-07-04T09:18:03.035Z,1.90
2018-07-04T09:20:42.802Z,1.80
2018-07-04T09:23:22.587Z,1.87
2018-07-04T09:26:02.503Z,1.60
2018-07-04T09:28:42.327Z,1.63
2018-07-04T09:31:21.902Z,1.57
2018-07-04T09:34:01.661Z,1.67
2018-07-04T09:36:41.379Z,1.50
2018-07-04T09:39:21.018Z,2.30
2018-07-04T09:42:00.904Z,2.03
2018-07-04T09:44:40.465Z,1.70
2018-07-04T09:47:20.141Z,2.07
2018-07-04T09:50:00.053Z,1.83
2018-07-04T09:52:39.667Z,1.97
2018-07-04T09:55:19.484Z,1.70
2018-07-04T09:57:59.522Z,1.67
2018-07-04T10:00:43.390Z,1.67
2018-07-04T10:03:23.251Z,1.80
2018-07-04T10:06:02.905Z,1.97
2018-07-04T10:08:42.645Z,1.77
2018-07-04T10:11:23.294Z,1.80
2018-07-04T10:14:03.116Z,2.00
2018-07-04T10:16:42.807Z,1.80
2018-07-04T10:19:22.383Z,1.83
2018-07-04T10:21:56.032Z,2.20
2018-07-04T10:24:35.861Z,2.00
2018-07-04T10:27:15.552Z,2.00
2018-07-04T10:29:55.264Z,2.37
2018-07-04T10:32:35.089Z,2.20
2018-07-04T10:35:14.862Z,1.97
2018-07-04T10:37:54.654Z,2.00
2018-07-04T10:40:34.423Z,1.97
2018-07-04T10:43:14.098Z,1.87
2018-07-04T10:45:54.018Z,2.30
2018-07-04T10:48:34.093Z,2.00
2018-07-04T10:51:13.738Z,1.97
2018-07-04T10:53:53.778Z,2.33
2018-07-04T10:56:33.655Z,1.83
2018-07-04T10:59:13.378Z,1.60
2018-07-04T11:01:53.746Z,2.00
2018-07-04T11:04:33.299Z,1.53
2018-07-04T11:07:13.317Z,1.60
2018-07-04T11:09:53.006Z,1.57
2018-07-04T11:12:33.061Z,1.67
2018-07-04T11:15:12.605Z,1.60
2018-07-04T11:17:52.190Z,1.43
2018-07-04T11:20:31.912Z,1.70
2018-07-04T11:23:11.567Z,1.50
2018-07-04T11:25:51.438Z,1.43
2018-07-04T11:28:31.114Z,1.97
2018-07-04T11:31:11.104Z,1.70
2018-07-04T11:33:44.726Z,1.87
2018-07-04T11:36:24.379Z,2.00
2018-07-04T11:39:04.551Z,1.67
2018-07-04T11:41:44.250Z,1.93
2018-07-04T11:44:25.246Z,1.50
2018-07-04T11:46:53.028Z,2.00
2018-07-04T11:49:21.047Z,1.97
2018-07-04T11:51:48.401Z,1.90
2018-07-04T11:54:15.842Z,1.73
2018-07-04T11:56:43.191Z,1.40
2018-07-04T11:59:10.541Z,1.70
2018-07-04T12:01:38.138Z,1.80
2018-07-04T12:04:18.051Z,1.60
2018-07-04T12:06:57.891Z,1.40
2018-07-04T12:09:25.541Z,1.50
2018-07-04T12:11:52.913Z,1.50
2018-07-04T12:14:20.296Z,1.50
2018-07-04T12:16:47.654Z,1.47
2018-07-04T12:19:15.034Z,1.60
2018-07-04T12:21:42.518Z,1.40
2018-07-04T12:24:09.935Z,1.40
2018-07-04T12:26:37.307Z,1.50
2018-07-04T12:29:04.688Z,1.50
2018-07-04T12:31:32.075Z,1.62
2018-07-04T12:33:59.830Z,1.90
2018-07-04T12:36:27.204Z,1.47
2018-07-04T12:38:54.883Z,1.40
2018-07-04T12:41:22.242Z,1.70
2018-07-04T12:43:50.386Z,1.35
2018-07-04T12:46:17.730Z,1.50
2018-07-04T12:48:45.098Z,1.60
2018-07-04T12:51:13.759Z,1.30
2018-07-04T12:53:41.146Z,1.43
2018-07-04T12:56:21.047Z,1.57
2018-07-04T12:59:00.925Z,1.77
2018-07-04T13:01:40.678Z,1.70
2018-07-04T13:04:20.594Z,1.60
2018-07-04T13:07:00.925Z,1.70
2018-07-04T13:09:40.677Z,1.90
2018-07-04T13:12:20.199Z,1.70
2018-07-04T13:14:59.895Z,1.87
2018-07-04T13:17:39.638Z,1.93
2018-07-04T13:20:19.520Z,1.70
2018-07-04T13:22:59.501Z,1.97
2018-07-04T13:25:39.288Z,1.83
2018-07-04T13:28:19.033Z,1.90
2018-07-04T13:30:58.786Z,1.80
2018-07-04T13:33:38.627Z,2.03
2018-07-04T13:36:18.682Z,2.13
2018-07-04T13:38:58.516Z,2.17
2018-07-04T13:41:38.314Z,1.97
2018-07-04T13:44:18.045Z,2.20
2018-07-04T13:46:57.818Z,1.90
2018-07-04T13:49:37.469Z,1.87
2018-07-04T13:52:17.223Z,1.73
2018-07-04T13:54:57.170Z,2.13
2018-07-04T13:57:36.827Z,1.70
2018-07-04T14:00:16.722Z,1.93
2018-07-04T14:02:57.662Z,2.20
2018-07-04T14:05:37.483Z,2.30
2018-07-04T14:08:17.191Z,2.10
2018-07-04T14:10:56.962Z,2.10
2018-07-04T14:13:36.583Z,2.30
2018-07-04T14:16:16.427Z,2.10
2018-07-04T14:18:56.271Z,2.60
2018-07-04T14:21:36.046Z,2.50
2018-07-04T14:24:15.880Z,2.47
2018-07-04T14:26:55.683Z,2.70
2018-07-04T14:29:35.450Z,2.60
2018-07-04T14:32:15.233Z,2.30
2018-07-04T14:34:55.175Z,2.20
2018-07-04T14:37:34.833Z,2.47
2018-07-04T14:40:14.522Z,2.40
2018-07-04T14:42:54.220Z,2.43
2018-07-04T14:45:33.943Z,2.43
2018-07-04T14:48:13.853Z,2.40
2018-07-04T14:50:53.629Z,2.47
2018-07-04T14:53:33.289Z,2.33
2018-07-04T14:56:13.047Z,2.33
2018-07-04T14:58:52.620Z,2.37
2018-07-04T15:01:33.292Z,2.30
2018-07-04T15:04:13.145Z,2.10
2018-07-04T15:06:52.943Z,2.30
2018-07-04T15:09:32.782Z,2.50
2018-07-04T15:12:12.574Z,2.40
2018-07-04T15:14:52.280Z,2.20
2018-07-04T15:17:34.234Z,2.60
2018-07-04T15:20:14.287Z,2.13
2018-07-04T15:22:54.075Z,2.60
2018-07-04T15:25:33.822Z,2.70
2018-07-04T15:28:13.597Z,2.27
2018-07-04T15:30:53.611Z,2.33
2018-07-04T15:33:34.717Z,2.20
2018-07-04T15:36:14.613Z,2.53
2018-07-04T15:38:54.694Z,2.30
2018-07-04T15:41:34.403Z,2.20
2018-07-04T15:44:14.103Z,2.10
2018-07-04T15:46:53.992Z,2.10
2018-07-04T15:49:33.686Z,2.30
2018-07-04T15:52:13.339Z,2.30
2018-07-04T15:54:53.110Z,2.40
2018-07-04T15:57:32.829Z,2.50
2018-07-04T16:00:12.559Z,2.57
2018-07-04T16:02:52.974Z,2.67
2018-07-04T16:05:32.944Z,2.80
2018-07-04T16:08:12.543Z,3.13
2018-07-04T16:10:52.242Z,2.37
2018-07-04T16:13:32.139Z,2.80
2018-07-04T16:16:11.831Z,8.23
2018-07-04T16:18:51.611Z,2.57
2018-07-04T16:21:31.195Z,2.50
2018-07-04T16:24:10.907Z,2.77
2018-07-04T16:26:51.806Z,2.87
2018-07-04T16:29:31.626Z,2.53
2018-07-04T16:32:11.329Z,2.50
2018-07-04T16:34:51.189Z,2.47
2018-07-04T16:37:30.924Z,2.23
2018-07-04T16:40:10.710Z,2.50
2018-07-04T16:42:50.454Z,2.80
2018-07-04T16:45:30.463Z,2.50
2018-07-04T16:48:10.091Z,2.90
2018-07-04T16:50:49.670Z,2.53
2018-07-04T16:53:29.510Z,3.33
2018-07-04T16:56:09.278Z,2.97
2018-07-04T16:58:49.050Z,2.90
2018-07-04T17:01:23.175Z,2.93
2018-07-04T17:04:03.014Z,3.27
2018-07-04T17:06:44.561Z,3.53
2018-07-04T17:09:24.314Z,3.30
2018-07-04T17:12:04.408Z,3.13
2018-07-04T17:14:44.279Z,3.70
2018-07-04T17:17:24.195Z,3.90
2018-07-04T17:20:04.647Z,3.60
2018-07-04T17:22:44.561Z,3.40
2018-07-04T17:25:24.449Z,3.43
2018-07-04T17:28:04.028Z,3.57
2018-07-04T17:30:43.920Z,3.73
2018-07-04T17:33:23.639Z,3.70
2018-07-04T17:36:03.552Z,3.43
2018-07-04T17:38:43.372Z,3.40
2018-07-04T17:41:23.046Z,3.60
2018-07-04T17:44:02.853Z,3.73
2018-07-04T17:46:45.000Z,3.53
2018-07-04T17:49:24.845Z,3.90
2018-07-04T17:52:04.736Z,4.03
2018-07-04T17:54:44.538Z,4.47
2018-07-04T17:57:24.218Z,4.03
2018-07-04T17:59:58.067Z,4.00
2018-07-04T18:02:37.795Z,4.27
2018-07-04T18:05:17.536Z,4.30
2018-07-04T18:07:57.562Z,4.03
2018-07-04T18:10:37.157Z,4.43
2018-07-04T18:13:16.833Z,4.20
2018-07-04T18:15:56.862Z,4.30
2018-07-04T18:18:37.583Z,4.33
2018-07-04T18:21:22.638Z,4.20
2018-07-04T18:24:02.317Z,3.37
2018-07-04T18:26:42.054Z,3.10
2018-07-04T18:29:22.141Z,3.20
2018-07-04T18:32:01.725Z,3.03
2018-07-04T18:34:41.466Z,2.80
2018-07-04T18:37:21.161Z,2.73
2018-07-04T18:40:01.586Z,2.40
2018-07-04T18:42:41.579Z,2.27
2018-07-04T18:45:21.114Z,2.63
2018-07-04T18:48:00.931Z,2.90
2018-07-04T18:50:40.687Z,2.40
2018-07-04T18:53:20.536Z,2.20
2018-07-04T18:56:00.339Z,2.60
2018-07-04T18:58:40.110Z,2.50
2018-07-04T19:01:20.022Z,2.50
2018-07-04T19:04:01.812Z,2.80
2018-07-04T19:06:41.614Z,2.30
2018-07-04T19:09:21.677Z,2.60
2018-07-04T19:12:01.565Z,2.60
2018-07-04T19:14:41.331Z,2.40
2018-07-04T19:17:21.006Z,2.37
2018-07-04T19:20:00.675Z,2.50
2018-07-04T19:22:40.380Z,2.60
2018-07-04T19:25:19.959Z,2.50
2018-07-04T19:27:59.621Z,2.63
2018-07-04T19:30:39.346Z,2.70
2018-07-04T19:33:19.956Z,2.33
2018-07-04T19:36:00.316Z,2.50
2018-07-04T19:38:40.170Z,2.70
2018-07-04T19:41:19.959Z,2.50
2018-07-04T19:43:59.766Z,2.57
2018-07-04T19:46:39.678Z,2.00
2018-07-04T19:49:19.421Z,2.80
2018-07-04T19:51:59.219Z,2.90
2018-07-04T19:54:38.935Z,2.60
2018-07-04T19:57:19.315Z,2.23
2018-07-04T19:59:59.122Z,2.90
2018-07-04T20:02:38.862Z,2.37
2018-07-04T20:05:18.619Z,2.87
2018-07-04T20:07:58.468Z,2.70
2018-07-04T20:10:39.180Z,2.80
2018-07-04T20:13:19.038Z,2.70
2018-07-04T20:16:00.418Z,2.70
2018-07-04T20:18:40.313Z,2.90
2018-07-04T20:21:20.424Z,2.33
2018-07-04T20:24:00.111Z,2.60
2018-07-04T20:26:40.099Z,2.83
2018-07-04T20:29:20.244Z,2.70
2018-07-04T20:32:00.347Z,2.87
2018-07-04T20:34:40.222Z,2.97
2018-07-04T20:37:19.962Z,3.20
2018-07-04T20:40:00.359Z,3.10
2018-07-04T20:42:40.027Z,3.10
2018-07-04T20:45:20.192Z,3.00
2018-07-04T20:48:00.265Z,3.20
2018-07-04T20:50:40.228Z,3.27
2018-07-04T20:53:19.848Z,3.70
2018-07-04T20:55:59.598Z,3.97
2018-07-04T20:58:39.254Z,3.30
2018-07-04T21:01:19.938Z,3.23
2018-07-04T21:04:00.959Z,3.60
2018-07-04T21:06:40.674Z,3.50
2018-07-04T21:09:20.759Z,3.30
2018-07-04T21:12:00.523Z,3.53
2018-07-04T21:14:40.356Z,3.70
2018-07-04T21:17:20.260Z,3.53
2018-07-04T21:20:00.213Z,3.70
2018-07-04T21:22:41.944Z,3.50
2018-07-04T21:25:22.709Z,3.40
2018-07-04T21:28:02.386Z,3.37
2018-07-04T21:30:43.049Z,3.50
2018-07-04T21:33:24.993Z,3.60
2018-07-04T21:36:04.697Z,3.50
2018-07-04T21:38:44.473Z,3.60
2018-07-04T21:41:24.166Z,4.10
2018-07-04T21:44:04.031Z,3.80
2018-07-04T21:46:43.771Z,3.70
2018-07-04T21:49:23.714Z,3.73
2018-07-04T21:52:03.810Z,3.90
2018-07-04T21:54:43.431Z,4.00
2018-07-04T21:57:23.059Z,4.27
2018-07-04T22:00:03.025Z,4.27
